Time;durP1;ratioP1;P1;durP2;ratioP2;P2;SDS_P1;SDS_P2;PMS_P1;PMS_P2;Temp;Humidity;BMP_temperature;BMP_pressure;BME280_temperature;BME280_humidity;BME280_pressure;Samples;Min_cycle;Max_cycle;Signal;HPM_P1;HPM_P2
2024/01/11 00:02:10;;;;;;;22.17;14.35;;;0.90;99.90;;;;;;5060012;28;20035;-72
2024/01/11 00:04:36;;;;;;;27.10;14.88;;;0.90;99.90;;;;;;5057772;28;20043;-71
2024/01/11 00:07:02;;;;;;;28.33;14.35;;;0.90;99.90;;;;;;5055266;28;20498;-71
2024/01/11 00:09:27;;;;;;;27.67;15.52;;;0.80;99.90;;;;;;5060867;28;20032;-72
2024/01/11 00:11:53;;;;;;;24.92;15.40;;;0.90;99.90;;;;;;5060121;28;20143;-72
2024/01/11 00:14:19;;;;;;;31.55;18.45;;;0.70;99.90;;;;;;5071142;28;20059;-72
2024/01/11 00:16:44;;;;;;;26.23;16.13;;;0.50;99.90;;;;;;5063535;28;20723;-71
2024/01/11 00:19:10;;;;;;;28.50;15.30;;;0.60;99.90;;;;;;5059218;28;20044;-72
2024/01/11 00:21:36;;;;;;;23.33;13.85;;;0.60;99.90;;;;;;5084958;28;20056;-72
2024/01/11 00:24:01;;;;;;;27.25;15.48;;;0.50;99.90;;;;;;5060745;28;20058;-71
2024/01/11 00:26:27;;;;;;;27.42;16.13;;;0.60;99.90;;;;;;5062127;28;20177;-72
2024/01/11 00:28:52;;;;;;;26.75;15.32;;;0.70;99.90;;;;;;5064849;28;20482;-72
2024/01/11 00:31:18;;;;;;;27.80;15.82;;;0.50;99.90;;;;;;5057612;28;20033;-71
2024/01/11 00:33:44;;;;;;;27.08;15.07;;;0.60;99.90;;;;;;5070280;28;20051;-71
2024/01/11 00:36:09;;;;;;;26.38;15.00;;;0.60;99.90;;;;;;5072668;28;20577;-71
2024/01/11 00:38:35;;;;;;;25.55;14.55;;;0.60;99.90;;;;;;5065852;28;20040;-71
2024/01/11 00:41:01;;;;;;;25.38;14.07;;;0.60;99.90;;;;;;5060473;28;20037;-72
2024/01/11 00:43:26;;;;;;;24.88;14.65;;;0.60;99.90;;;;;;5061387;28;20016;-72
2024/01/11 00:45:52;;;;;;;27.00;14.50;;;0.60;99.90;;;;;;5066439;28;20581;-71
2024/01/11 00:48:17;;;;;;;25.23;15.40;;;0.60;99.90;;;;;;5065923;28;20405;-72
2024/01/11 00:50:43;;;;;;;27.92;15.13;;;0.60;99.90;;;;;;5056439;28;20028;-71
2024/01/11 00:53:10;;;;;;;28.92;16.23;;;0.60;99.90;;;;;;5063954;28;20064;-71
2024/01/11 00:55:35;;;;;;;26.15;15.70;;;0.60;99.90;;;;;;5066153;28;20036;-72
2024/01/11 00:58:01;;;;;;;25.30;13.95;;;0.50;99.90;;;;;;5056327;28;20033;-72
2024/01/11 01:00:27;;;;;;;24.83;14.98;;;0.50;99.90;;;;;;5061297;28;20101;-71
2024/01/11 01:02:53;;;;;;;26.10;14.63;;;0.40;99.90;;;;;;5065132;28;20032;-71
2024/01/11 01:05:19;;;;;;;28.92;16.58;;;0.40;99.90;;;;;;5066315;28;20044;-71
2024/01/11 01:07:45;;;;;;;23.20;13.93;;;0.50;99.90;;;;;;5056477;28;21876;-71
2024/01/11 01:10:11;;;;;;;28.15;16.33;;;0.60;99.90;;;;;;5056417;28;20056;-72
2024/01/11 01:12:37;;;;;;;28.48;15.60;;;0.40;99.90;;;;;;5057301;28;20051;-71
2024/01/11 01:15:03;;;;;;;28.40;15.95;;;0.50;99.90;;;;;;5063247;28;22276;-71
2024/01/11 01:17:28;;;;;;;27.08;15.52;;;0.50;99.90;;;;;;5069919;28;20039;-72
2024/01/11 01:19:54;;;;;;;28.38;16.13;;;0.40;99.90;;;;;;5065904;28;20096;-71
2024/01/11 01:22:20;;;;;;;31.10;17.15;;;0.40;99.90;;;;;;5056929;28;20036;-71
2024/01/11 01:24:45;;;;;;;28.80;15.70;;;0.50;99.90;;;;;;5066499;28;20052;-72
2024/01/11 01:27:11;;;;;;;25.73;15.30;;;0.40;99.90;;;;;;5062202;28;20131;-71
2024/01/11 01:29:36;;;;;;;30.98;15.50;;;0.40;99.90;;;;;;5061533;28;20044;-71
2024/01/11 01:32:02;;;;;;;23.92;13.45;;;0.30;99.90;;;;;;5056399;28;20028;-71
2024/01/11 01:34:28;;;;;;;26.50;15.45;;;0.40;99.90;;;;;;5065312;28;20112;-71
2024/01/11 01:36:54;;;;;;;24.35;14.52;;;0.30;99.90;;;;;;5072359;28;20100;-71
2024/01/11 01:39:19;;;;;;;27.17;14.77;;;0.40;99.90;;;;;;5066669;28;20032;-71
2024/01/11 01:41:45;;;;;;;23.90;13.52;;;0.50;99.90;;;;;;5054549;28;20032;-71
2024/01/11 01:44:10;;;;;;;26.40;13.68;;;0.40;99.90;;;;;;5060105;28;20028;-71
2024/01/11 01:46:37;;;;;;;28.00;16.38;;;0.40;99.90;;;;;;5061113;28;20125;-71
2024/01/11 01:49:04;;;;;;;23.83;13.35;;;0.30;99.90;;;;;;5056489;28;20103;-71
2024/01/11 01:51:31;;;;;;;27.35;16.17;;;0.30;99.90;;;;;;5062465;28;20033;-71
2024/01/11 01:53:58;;;;;;;23.25;13.13;;;0.30;99.90;;;;;;5064624;28;20044;-71
2024/01/11 01:56:24;;;;;;;27.80;16.00;;;0.20;99.90;;;;;;5061540;28;20409;-71
2024/01/11 01:58:51;;;;;;;27.52;14.55;;;0.20;99.90;;;;;;5063800;28;20032;-72
2024/01/11 02:01:20;;;;;;;27.42;14.63;;;0.30;99.90;;;;;;5064970;28;20033;-71
2024/01/11 02:03:48;;;;;;;27.23;15.48;;;0.10;99.90;;;;;;5056039;28;20040;-71
2024/01/11 02:06:15;;;;;;;24.77;14.95;;;0.20;99.90;;;;;;5067156;28;20035;-71
2024/01/11 02:08:43;;;;;;;27.67;14.60;;;0.20;99.90;;;;;;5062810;28;20070;-72
2024/01/11 02:11:11;;;;;;;24.73;13.65;;;0.20;99.90;;;;;;5065140;28;20047;-71
2024/01/11 02:13:37;;;;;;;24.42;13.77;;;0.20;99.90;;;;;;5055184;28;20523;-71
2024/01/11 02:16:03;;;;;;;21.80;12.45;;;0.30;99.90;;;;;;5065875;28;20123;-71
2024/01/11 02:18:29;;;;;;;26.15;13.38;;;0.30;99.90;;;;;;5062433;28;20033;-71
2024/01/11 02:20:56;;;;;;;22.63;13.80;;;0.30;99.90;;;;;;5063294;28;20032;-71
2024/01/11 02:23:25;;;;;;;22.80;14.15;;;0.30;99.90;;;;;;5058453;28;20028;-71
2024/01/11 02:25:51;;;;;;;23.92;14.27;;;0.30;99.90;;;;;;5061544;28;20032;-71
2024/01/11 02:28:17;;;;;;;25.30;13.82;;;0.20;99.90;;;;;;5065391;28;20063;-72
2024/01/11 02:30:43;;;;;;;25.27;14.15;;;0.10;99.90;;;;;;5061270;28;20035;-71
2024/01/11 02:33:09;;;;;;;24.80;15.00;;;0.20;99.90;;;;;;5054033;28;20060;-71
2024/01/11 02:35:38;;;;;;;25.98;12.60;;;0.00;99.90;;;;;;5057917;28;20077;-72
2024/01/11 02:38:05;;;;;;;20.50;12.95;;;0.00;99.90;;;;;;5056544;28;20493;-71
2024/01/11 02:40:31;;;;;;;21.88;11.93;;;0.00;99.90;;;;;;5059010;28;20025;-71
2024/01/11 02:42:57;;;;;;;21.38;12.05;;;0.00;99.90;;;;;;5054811;28;20070;-71
2024/01/11 02:45:23;;;;;;;23.20;13.35;;;0.10;99.90;;;;;;5061529;28;20681;-71
2024/01/11 02:47:48;;;;;;;24.42;13.65;;;0.10;99.90;;;;;;5061218;28;20131;-72
2024/01/11 02:50:14;;;;;;;19.77;12.38;;;0.20;99.90;;;;;;5054822;28;20117;-71
2024/01/11 02:52:40;;;;;;;21.30;12.52;;;0.00;99.90;;;;;;5056017;28;20834;-71
2024/01/11 02:55:06;;;;;;;22.67;12.60;;;-0.10;99.90;;;;;;5061085;28;20123;-72
2024/01/11 02:57:31;;;;;;;24.23;13.98;;;0.10;99.90;;;;;;5057961;28;20033;-71
2024/01/11 02:59:57;;;;;;;20.05;11.52;;;0.20;99.90;;;;;;5053876;28;20154;-71
2024/01/11 03:02:23;;;;;;;21.52;12.18;;;0.20;99.90;;;;;;5063490;28;20113;-72
2024/01/11 03:04:48;;;;;;;18.42;10.73;;;0.30;99.90;;;;;;5058186;28;20043;-72
2024/01/11 03:07:14;;;;;;;19.55;11.23;;;0.30;99.90;;;;;;5059772;28;20045;-72
2024/01/11 03:09:40;;;;;;;19.77;11.25;;;0.80;99.90;;;;;;5066541;28;20088;-72
2024/01/11 03:12:06;;;;;;;21.35;11.70;;;1.00;99.90;;;;;;5062833;28;21326;-71
2024/01/11 03:14:32;;;;;;;18.67;10.88;;;0.80;99.90;;;;;;5067597;28;20932;-72
2024/01/11 03:16:58;;;;;;;17.90;11.23;;;0.90;99.90;;;;;;5085598;28;20378;-72
2024/01/11 03:19:23;;;;;;;22.55;9.93;;;1.00;99.90;;;;;;5064619;28;20467;-72
2024/01/11 03:21:49;;;;;;;19.83;11.10;;;1.00;99.90;;;;;;5072107;28;20052;-71
2024/01/11 03:24:14;;;;;;;17.73;10.27;;;0.90;99.90;;;;;;5063307;28;20067;-72
2024/01/11 03:26:41;;;;;;;17.17;9.43;;;0.80;99.90;;;;;;5065711;28;20044;-71
2024/01/11 03:29:07;;;;;;;18.58;10.93;;;0.80;99.90;;;;;;5066833;28;20474;-71
2024/01/11 03:31:33;;;;;;;19.13;10.15;;;0.80;99.90;;;;;;5070988;28;20522;-71
2024/01/11 03:33:58;;;;;;;16.83;10.60;;;0.70;99.90;;;;;;5056773;28;20040;-71
2024/01/11 03:36:24;;;;;;;18.52;10.50;;;0.40;99.90;;;;;;5064132;28;20262;-71
2024/01/11 03:38:50;;;;;;;16.77;9.52;;;0.30;99.90;;;;;;5066238;28;20032;-71
2024/01/11 03:41:16;;;;;;;17.75;9.40;;;0.30;99.90;;;;;;5073670;28;20371;-72
2024/01/11 03:43:41;;;;;;;16.75;9.10;;;0.40;99.90;;;;;;5064957;28;20040;-71
2024/01/11 03:46:07;;;;;;;20.58;11.63;;;0.30;99.90;;;;;;5057871;28;20032;-71
2024/01/11 03:48:35;;;;;;;20.83;11.75;;;0.30;99.90;;;;;;5070431;28;20040;-71
2024/01/11 03:51:01;;;;;;;20.13;11.07;;;0.20;99.90;;;;;;5074036;28;20534;-71
2024/01/11 03:53:27;;;;;;;17.45;9.57;;;0.10;99.90;;;;;;5064028;28;20036;-71
2024/01/11 03:55:52;;;;;;;17.10;9.38;;;0.20;99.90;;;;;;5068394;28;20032;-72
2024/01/11 03:58:18;;;;;;;18.23;9.98;;;0.10;99.90;;;;;;5061799;28;20032;-71
2024/01/11 04:00:44;;;;;;;22.10;12.07;;;0.20;99.90;;;;;;5066703;28;20127;-71
2024/01/11 04:03:09;;;;;;;21.83;12.57;;;0.20;99.90;;;;;;5060169;28;21245;-71
2024/01/11 04:05:35;;;;;;;17.95;10.13;;;0.20;99.90;;;;;;5054327;28;20449;-72
2024/01/11 04:08:07;;;;;;;16.25;9.38;;;0.00;99.90;;;;;;5055722;28;20445;-72
2024/01/11 04:10:33;;;;;;;19.37;10.83;;;0.20;99.90;;;;;;5060209;28;20560;-71
2024/01/11 04:12:58;;;;;;;17.40;10.13;;;0.20;99.90;;;;;;5054338;28;20020;-72
2024/01/11 04:15:24;;;;;;;13.05;8.48;;;0.10;99.90;;;;;;5057622;28;20032;-71
2024/01/11 04:17:49;;;;;;;14.82;8.90;;;0.20;99.90;;;;;;5054653;28;20036;-72
2024/01/11 04:20:15;;;;;;;13.80;8.02;;;0.20;99.90;;;;;;5058353;28;20040;-72
2024/01/11 04:22:41;;;;;;;14.20;7.78;;;0.40;99.90;;;;;;5048402;28;21016;-71
2024/01/11 04:25:07;;;;;;;14.20;7.75;;;0.60;99.90;;;;;;5066430;28;20040;-71
2024/01/11 04:27:33;;;;;;;14.63;8.48;;;0.80;99.90;;;;;;5057567;28;20046;-72
2024/01/11 04:29:58;;;;;;;15.15;8.18;;;0.70;99.90;;;;;;5060966;28;20032;-72
2024/01/11 04:32:24;;;;;;;13.82;8.38;;;0.40;99.90;;;;;;5053058;28;20037;-71
2024/01/11 04:34:50;;;;;;;14.38;7.70;;;0.50;99.90;;;;;;5051621;28;20467;-73
2024/01/11 04:37:15;;;;;;;14.63;8.63;;;0.40;99.90;;;;;;5051229;28;20025;-72
2024/01/11 04:39:41;;;;;;;16.00;9.35;;;0.50;99.90;;;;;;5061495;28;20035;-71
2024/01/11 04:42:07;;;;;;;13.77;7.85;;;0.40;99.90;;;;;;5056734;28;20110;-71
2024/01/11 04:44:32;;;;;;;12.57;7.25;;;0.30;99.90;;;;;;5060663;28;20023;-72
2024/01/11 04:46:58;;;;;;;12.50;7.40;;;0.20;99.90;;;;;;5054727;28;20060;-71
2024/01/11 04:49:24;;;;;;;13.15;8.20;;;0.20;99.90;;;;;;5055355;28;20378;-71
2024/01/11 04:51:50;;;;;;;13.07;7.53;;;0.00;99.90;;;;;;5056006;28;20036;-71
2024/01/11 04:54:15;;;;;;;11.65;7.50;;;0.00;99.90;;;;;;5063767;28;20032;-71
2024/01/11 04:56:41;;;;;;;14.43;8.18;;;-0.10;99.90;;;;;;5066434;28;20172;-71
2024/01/11 04:59:07;;;;;;;13.65;7.63;;;0.00;99.90;;;;;;5060134;28;20034;-72
2024/01/11 05:01:32;;;;;;;13.70;7.28;;;0.10;99.90;;;;;;5054854;28;20032;-72
2024/01/11 05:03:58;;;;;;;12.75;7.75;;;0.00;99.90;;;;;;5057311;28;20028;-71
2024/01/11 05:06:24;;;;;;;17.73;9.20;;;0.10;99.90;;;;;;5057796;28;20766;-72
2024/01/11 05:08:52;;;;;;;14.68;7.10;;;0.10;99.90;;;;;;5055849;28;20032;-72
2024/01/11 05:11:23;;;;;;;12.68;7.13;;;0.00;99.90;;;;;;5063137;28;20079;-71
2024/01/11 05:13:50;;;;;;;14.52;8.10;;;-0.20;99.90;;;;;;5051637;28;20036;-72
2024/01/11 05:16:23;;;;;;;15.85;8.45;;;0.00;99.90;;;;;;5057978;28;20043;-73
2024/01/11 05:18:50;;;;;;;12.98;6.75;;;0.10;99.90;;;;;;5056956;28;20029;-72
2024/01/11 05:21:15;;;;;;;13.00;7.75;;;0.00;99.90;;;;;;5055654;28;20402;-71
2024/01/11 05:23:42;;;;;;;12.57;7.60;;;0.20;99.90;;;;;;5057359;28;20032;-72
2024/01/11 05:26:08;;;;;;;12.50;8.02;;;0.40;99.90;;;;;;5056726;28;20967;-72
2024/01/11 05:28:34;;;;;;;15.07;8.43;;;0.40;99.90;;;;;;5062595;28;20243;-71
2024/01/11 05:31:00;;;;;;;12.32;7.38;;;0.20;99.90;;;;;;5055204;28;20506;-73
2024/01/11 05:33:26;;;;;;;12.38;6.97;;;0.20;99.90;;;;;;5061625;28;20036;-71
2024/01/11 05:35:53;;;;;;;11.70;6.43;;;0.20;99.90;;;;;;5055198;28;20924;-72
2024/01/11 05:38:19;;;;;;;14.15;6.82;;;0.10;99.90;;;;;;5057483;28;20523;-72
2024/01/11 05:40:45;;;;;;;12.05;7.20;;;0.00;99.90;;;;;;5051719;28;20036;-72
2024/01/11 05:43:10;;;;;;;13.50;6.97;;;0.00;99.90;;;;;;5048125;28;20036;-72
2024/01/11 05:45:36;;;;;;;11.50;6.90;;;-0.10;99.90;;;;;;5049546;28;20098;-72
2024/01/11 05:48:02;;;;;;;11.50;6.47;;;-0.10;99.90;;;;;;5056348;28;20551;-71
2024/01/11 05:50:27;;;;;;;11.80;6.60;;;0.30;99.90;;;;;;5050328;28;20040;-71
2024/01/11 05:52:54;;;;;;;10.93;5.95;;;0.10;99.90;;;;;;5056966;28;20115;-72
2024/01/11 05:55:20;;;;;;;11.43;6.13;;;0.20;99.90;;;;;;5049757;28;20032;-71
2024/01/11 05:57:46;;;;;;;10.43;6.70;;;0.10;99.90;;;;;;5055298;28;20044;-71
2024/01/11 06:00:12;;;;;;;12.52;6.40;;;0.10;99.90;;;;;;5050482;28;20068;-71
2024/01/11 06:02:37;;;;;;;15.00;7.03;;;0.10;99.90;;;;;;5054192;28;20583;-72
2024/01/11 06:05:03;;;;;;;11.18;7.30;;;0.00;99.90;;;;;;5055388;28;20036;-72
2024/01/11 06:07:29;;;;;;;10.48;6.60;;;0.00;99.90;;;;;;5057560;28;20752;-72
2024/01/11 06:09:55;;;;;;;10.10;5.72;;;-0.10;99.90;;;;;;5056387;28;20036;-72
2024/01/11 06:12:20;;;;;;;11.40;6.30;;;0.00;99.90;;;;;;5062124;28;20040;-72
2024/01/11 06:14:46;;;;;;;10.75;6.22;;;0.10;99.90;;;;;;5048676;28;20032;-72
2024/01/11 06:17:12;;;;;;;12.82;7.20;;;-0.20;99.90;;;;;;5057499;28;20035;-72
2024/01/11 06:19:38;;;;;;;11.40;6.47;;;-0.40;99.90;;;;;;5058459;28;20032;-72
2024/01/11 06:22:05;;;;;;;11.83;6.40;;;-0.50;99.90;;;;;;5061211;28;20028;-71
2024/01/11 06:24:31;;;;;;;12.25;6.55;;;-0.40;99.90;;;;;;5051711;28;20024;-72
2024/01/11 06:26:57;;;;;;;11.85;6.63;;;-0.10;99.90;;;;;;5049843;28;20048;-72
2024/01/11 06:29:22;;;;;;;13.60;6.80;;;-0.10;99.90;;;;;;5061185;28;20054;-71
2024/01/11 06:31:48;;;;;;;9.20;5.80;;;-0.10;99.90;;;;;;5057101;28;20678;-71
2024/01/11 06:34:13;;;;;;;11.02;6.38;;;-0.10;99.90;;;;;;5051800;28;20033;-71
2024/01/11 06:36:39;;;;;;;11.20;6.87;;;-0.10;99.90;;;;;;5054901;28;20064;-72
2024/01/11 06:39:05;;;;;;;10.32;6.15;;;0.10;99.90;;;;;;5059954;28;20056;-72
2024/01/11 06:41:30;;;;;;;14.90;8.13;;;-0.10;99.90;;;;;;5059744;28;20062;-71
2024/01/11 06:43:56;;;;;;;13.55;8.15;;;-0.20;99.90;;;;;;5057776;28;20122;-71
2024/01/11 06:46:22;;;;;;;11.13;6.55;;;-0.10;99.90;;;;;;5061668;28;20043;-71
2024/01/11 06:48:49;;;;;;;12.00;7.28;;;0.00;99.90;;;;;;5061905;28;20036;-71
2024/01/11 06:51:21;;;;;;;10.70;6.47;;;0.10;99.90;;;;;;5057033;28;20988;-71
2024/01/11 06:53:47;;;;;;;9.27;5.17;;;0.20;99.90;;;;;;5062734;28;20047;-71
2024/01/11 06:56:17;;;;;;;11.27;6.10;;;0.30;99.90;;;;;;5055379;28;20036;-71
2024/01/11 06:58:43;;;;;;;12.73;5.60;;;0.40;99.90;;;;;;5065464;28;20083;-71
2024/01/11 07:01:10;;;;;;;10.63;6.30;;;0.40;99.90;;;;;;5064396;28;20032;-72
2024/01/11 07:03:36;;;;;;;12.23;6.35;;;0.40;99.90;;;;;;5051844;28;20056;-72
2024/01/11 07:06:03;;;;;;;11.05;6.40;;;0.20;99.90;;;;;;5067724;28;20115;-71
2024/01/11 07:08:29;;;;;;;12.02;6.22;;;0.20;99.90;;;;;;5062412;28;20059;-72
2024/01/11 07:10:55;;;;;;;10.38;6.15;;;0.20;99.90;;;;;;5058150;28;20451;-72
2024/01/11 07:13:20;;;;;;;10.80;5.22;;;0.30;99.90;;;;;;5056989;28;20036;-71
2024/01/11 07:15:47;;;;;;;11.13;6.23;;;0.20;99.90;;;;;;5055004;28;20135;-71
2024/01/11 07:18:13;;;;;;;9.63;6.00;;;0.20;99.90;;;;;;5058737;28;20608;-71
2024/01/11 07:20:39;;;;;;;10.55;6.55;;;0.10;99.90;;;;;;5064146;28;20043;-71
2024/01/11 07:23:05;;;;;;;10.70;6.27;;;-0.10;99.90;;;;;;5060739;28;21234;-72
2024/01/11 07:25:30;;;;;;;9.65;5.55;;;-0.20;99.90;;;;;;5066209;28;20136;-71
2024/01/11 07:27:56;;;;;;;10.02;5.38;;;0.10;99.90;;;;;;5056446;28;20148;-72
2024/01/11 07:30:21;;;;;;;8.13;5.17;;;0.30;99.90;;;;;;5059676;28;20040;-72
2024/01/11 07:32:47;;;;;;;10.73;5.30;;;0.30;99.90;;;;;;5057299;28;20029;-72
2024/01/11 07:35:14;;;;;;;10.00;6.53;;;0.20;99.90;;;;;;5062188;28;20081;-72
2024/01/11 07:37:40;;;;;;;8.30;4.18;;;0.20;99.90;;;;;;5054312;28;20039;-72
2024/01/11 07:40:10;;;;;;;11.27;5.97;;;0.20;99.90;;;;;;5052789;28;20055;-72
2024/01/11 07:42:40;;;;;;;10.43;5.20;;;0.10;99.90;;;;;;5053091;28;20028;-71
2024/01/11 07:45:13;;;;;;;10.48;6.07;;;0.00;99.90;;;;;;5055520;28;20631;-72
2024/01/11 07:47:39;;;;;;;9.57;5.22;;;0.10;99.90;;;;;;5058605;28;20732;-71
2024/01/11 07:50:12;;;;;;;10.60;5.47;;;0.20;99.90;;;;;;5057095;28;20047;-72
2024/01/11 07:52:39;;;;;;;10.20;5.18;;;0.10;99.90;;;;;;5059698;28;20493;-71
2024/01/11 07:55:08;;;;;;;9.50;5.33;;;0.30;99.90;;;;;;5057922;28;20029;-72
2024/01/11 07:57:40;;;;;;;11.17;5.33;;;0.40;99.90;;;;;;5053186;28;20037;-72
2024/01/11 08:00:06;;;;;;;8.50;4.93;;;0.30;99.90;;;;;;5057835;28;20028;-72
2024/01/11 08:02:33;;;;;;;9.30;5.55;;;0.40;99.90;;;;;;5062710;28;20044;-71
2024/01/11 08:04:59;;;;;;;9.30;5.03;;;0.60;99.90;;;;;;5049867;28;20718;-71
2024/01/11 08:07:26;;;;;;;9.18;5.38;;;0.50;99.90;;;;;;5058388;28;20487;-72
2024/01/11 08:09:52;;;;;;;10.63;5.13;;;0.40;99.90;;;;;;5057237;28;20032;-72
2024/01/11 08:12:18;;;;;;;9.07;5.27;;;0.30;99.90;;;;;;5053069;28;20032;-71
2024/01/11 08:14:44;;;;;;;9.05;5.45;;;0.50;99.90;;;;;;5054375;28;20090;-71
2024/01/11 08:17:10;;;;;;;10.65;5.47;;;0.50;99.90;;;;;;5052047;28;20838;-72
2024/01/11 08:19:36;;;;;;;8.32;4.80;;;0.60;99.90;;;;;;5050949;28;20035;-73
2024/01/11 08:22:02;;;;;;;9.05;5.20;;;0.50;99.90;;;;;;5048468;28;20064;-72
2024/01/11 08:24:27;;;;;;;10.60;5.07;;;0.60;99.90;;;;;;5048665;28;20121;-72
2024/01/11 08:26:53;;;;;;;7.70;4.97;;;0.70;99.90;;;;;;5052539;28;20123;-72
2024/01/11 08:29:19;;;;;;;8.82;4.85;;;0.70;99.90;;;;;;5049866;28;20017;-72
2024/01/11 08:31:46;;;;;;;7.88;4.70;;;0.90;99.90;;;;;;5055253;28;20032;-72
2024/01/11 08:34:11;;;;;;;9.93;5.07;;;0.80;99.90;;;;;;5057210;28;20132;-72
2024/01/11 08:36:38;;;;;;;8.40;4.35;;;0.90;99.90;;;;;;5055914;28;20727;-73
2024/01/11 08:39:08;;;;;;;8.65;4.40;;;0.80;99.90;;;;;;5052244;28;20468;-72
2024/01/11 08:41:37;;;;;;;8.73;5.55;;;0.80;99.90;;;;;;5058215;28;20044;-72
2024/01/11 08:44:05;;;;;;;7.72;5.03;;;0.80;99.90;;;;;;5050265;28;20040;-72
2024/01/11 08:46:33;;;;;;;9.15;5.10;;;0.80;99.90;;;;;;5056613;28;20025;-72
2024/01/11 08:48:59;;;;;;;13.45;4.90;;;0.80;99.90;;;;;;5049315;28;20155;-71
2024/01/11 08:51:25;;;;;;;9.18;5.22;;;0.90;99.90;;;;;;5049793;28;20097;-72
2024/01/11 08:53:52;;;;;;;8.18;4.50;;;1.00;99.90;;;;;;5052323;28;20298;-72
2024/01/11 08:56:18;;;;;;;7.93;4.38;;;0.90;99.90;;;;;;5048690;28;20024;-72
2024/01/11 08:58:44;;;;;;;10.40;5.38;;;0.90;99.90;;;;;;5041106;28;20040;-73
2024/01/11 09:01:10;;;;;;;8.80;4.82;;;1.00;99.90;;;;;;5055639;28;20090;-73
2024/01/11 09:03:35;;;;;;;9.35;4.53;;;1.00;99.90;;;;;;5053008;28;20039;-73
2024/01/11 09:06:04;;;;;;;9.15;4.55;;;0.80;99.90;;;;;;5057694;28;20038;-73
2024/01/11 09:08:30;;;;;;;10.35;5.35;;;0.80;99.90;;;;;;5056909;28;20113;-74
2024/01/11 09:10:58;;;;;;;9.10;5.13;;;0.80;99.90;;;;;;5053145;28;20620;-73
2024/01/11 09:13:23;;;;;;;7.55;4.30;;;0.80;99.90;;;;;;5052077;28;20247;-73
2024/01/11 09:15:49;;;;;;;9.52;5.00;;;0.80;99.90;;;;;;5060059;28;20032;-73
2024/01/11 09:18:15;;;;;;;8.45;4.88;;;0.90;99.90;;;;;;5055508;28;20043;-73
2024/01/11 09:20:41;;;;;;;11.25;5.47;;;0.80;99.90;;;;;;5056940;28;20024;-72
2024/01/11 09:23:08;;;;;;;9.60;5.05;;;0.80;99.90;;;;;;5062026;28;20098;-72
2024/01/11 09:25:33;;;;;;;8.32;4.80;;;1.00;99.90;;;;;;5058935;28;20033;-72
2024/01/11 09:27:59;;;;;;;9.18;4.78;;;1.10;99.90;;;;;;5062939;28;20084;-72
2024/01/11 09:30:25;;;;;;;8.40;4.40;;;1.20;99.90;;;;;;5054829;28;20659;-72
2024/01/11 09:32:52;;;;;;;10.10;4.70;;;1.20;99.90;;;;;;5064563;28;20028;-72
2024/01/11 09:35:17;;;;;;;7.32;4.03;;;1.10;99.90;;;;;;5052488;28;20485;-72
2024/01/11 09:37:45;;;;;;;7.65;4.18;;;1.00;99.90;;;;;;5058315;28;20123;-72
2024/01/11 09:40:11;;;;;;;12.60;4.72;;;1.00;99.90;;;;;;5066021;28;20695;-73
2024/01/11 09:42:37;;;;;;;8.68;4.70;;;1.10;99.90;;;;;;5066884;28;20515;-72
2024/01/11 09:45:12;;;;;;;8.90;4.53;;;1.10;99.90;;;;;;5061904;28;20063;-73
2024/01/11 09:47:39;;;;;;;7.90;4.28;;;1.10;99.90;;;;;;5062510;28;20044;-72
2024/01/11 09:50:06;;;;;;;10.60;4.85;;;1.20;99.90;;;;;;5061331;28;20028;-72
2024/01/11 09:52:32;;;;;;;10.30;4.90;;;1.10;99.90;;;;;;5052073;28;20399;-73
2024/01/11 09:55:01;;;;;;;8.98;5.30;;;1.10;99.90;;;;;;5051638;28;20069;-73
2024/01/11 09:57:32;;;;;;;9.77;4.97;;;1.00;99.90;;;;;;5051386;28;20044;-72
2024/01/11 09:59:58;;;;;;;8.52;4.47;;;1.10;99.90;;;;;;5048656;28;20498;-72
2024/01/11 10:02:28;;;;;;;9.48;4.25;;;1.00;99.90;;;;;;5053443;28;20037;-73
2024/01/11 10:04:54;;;;;;;8.77;5.20;;;1.00;99.90;;;;;;5051772;28;21317;-72
2024/01/11 10:07:22;;;;;;;8.45;4.10;;;1.00;99.90;;;;;;5052489;28;21747;-73
2024/01/11 10:09:49;;;;;;;8.95;3.90;;;1.10;99.90;;;;;;5050336;28;20036;-72
2024/01/11 10:12:15;;;;;;;9.85;3.90;;;1.10;99.90;;;;;;5063980;28;20069;-73
2024/01/11 10:14:41;;;;;;;8.10;4.05;;;1.10;99.90;;;;;;5055574;28;20837;-72
2024/01/11 10:17:07;;;;;;;9.77;4.80;;;1.10;99.90;;;;;;5066350;28;20028;-72
2024/01/11 10:19:32;;;;;;;7.30;4.30;;;1.00;99.90;;;;;;5056446;28;20096;-72
2024/01/11 10:21:58;;;;;;;7.22;4.10;;;1.00;99.90;;;;;;5058589;28;20040;-72
2024/01/11 10:24:26;;;;;;;7.35;4.30;;;1.10;99.90;;;;;;5053344;28;20089;-72
2024/01/11 10:26:55;;;;;;;7.10;3.55;;;1.20;99.90;;;;;;5052207;28;20033;-72
2024/01/11 10:29:21;;;;;;;9.48;4.82;;;1.10;99.90;;;;;;5056023;28;20040;-73
2024/01/11 10:31:47;;;;;;;8.68;4.55;;;1.10;99.90;;;;;;5054192;28;20039;-72
2024/01/11 10:34:13;;;;;;;7.45;4.43;;;1.20;99.90;;;;;;5063261;28;20406;-73
2024/01/11 10:36:40;;;;;;;8.07;3.78;;;1.20;99.90;;;;;;5047895;28;20029;-73
2024/01/11 10:39:09;;;;;;;7.60;4.20;;;1.20;99.90;;;;;;5059710;28;20041;-73
2024/01/11 10:41:43;;;;;;;7.90;4.63;;;1.10;99.90;;;;;;5060901;28;20036;-73
2024/01/11 10:44:23;;;;;;;9.68;4.30;;;1.20;99.90;;;;;;5063831;28;20043;-72
2024/01/11 10:46:50;;;;;;;8.38;3.70;;;1.20;99.90;;;;;;5057318;28;20033;-72
2024/01/11 10:49:18;;;;;;;10.30;4.78;;;1.30;99.90;;;;;;5055834;28;20058;-72
2024/01/11 10:51:56;;;;;;;7.85;4.13;;;1.40;99.90;;;;;;5050769;28;20040;-72
2024/01/11 10:54:23;;;;;;;9.75;3.58;;;1.50;99.90;;;;;;5056209;28;20603;-73
2024/01/11 10:56:49;;;;;;;7.38;4.30;;;1.60;99.90;;;;;;5057367;28;20040;-73
2024/01/11 10:59:17;;;;;;;6.90;3.92;;;1.70;99.90;;;;;;5057643;28;20035;-73
2024/01/11 11:01:45;;;;;;;8.50;4.60;;;1.90;99.90;;;;;;5056321;28;20047;-73
2024/01/11 11:04:11;;;;;;;8.80;5.40;;;2.00;99.90;;;;;;5060256;28;20611;-74
2024/01/11 11:06:39;;;;;;;10.23;6.45;;;2.10;99.90;;;;;;5057010;28;20039;-73
2024/01/11 11:09:07;;;;;;;10.10;5.05;;;2.20;99.90;;;;;;5052643;28;20031;-73
2024/01/11 11:11:33;;;;;;;13.70;6.03;;;2.30;99.90;;;;;;5056225;28;20049;-73
2024/01/11 11:14:00;;;;;;;9.48;5.63;;;2.50;99.90;;;;;;5060923;28;20043;-73
2024/01/11 11:16:26;;;;;;;13.68;6.80;;;2.70;99.90;;;;;;5057723;28;20502;-72
2024/01/11 11:18:55;;;;;;;9.18;4.75;;;3.20;99.90;;;;;;5055729;28;20021;-73
2024/01/11 11:21:21;;;;;;;10.60;5.82;;;3.20;99.90;;;;;;5060163;28;21749;-73
2024/01/11 11:23:48;;;;;;;8.35;5.10;;;3.20;99.90;;;;;;5063359;28;20454;-73
2024/01/11 11:26:17;;;;;;;8.48;5.00;;;3.20;99.90;;;;;;5058248;28;20050;-73
2024/01/11 11:28:43;;;;;;;8.38;5.10;;;3.10;99.90;;;;;;5056702;28;20044;-73
2024/01/11 11:31:11;;;;;;;9.98;5.85;;;3.20;99.90;;;;;;5062139;28;20475;-73
2024/01/11 11:33:37;;;;;;;11.57;6.93;;;3.30;99.90;;;;;;5059040;28;20115;-73
2024/01/11 11:36:03;;;;;;;9.48;5.95;;;3.40;99.90;;;;;;5057073;28;20051;-73
2024/01/11 11:38:30;;;;;;;9.40;5.38;;;3.40;99.90;;;;;;5054946;28;20044;-73
2024/01/11 11:40:58;;;;;;;14.40;7.13;;;3.60;99.90;;;;;;5056460;28;20540;-72
2024/01/11 11:43:27;;;;;;;10.77;5.43;;;3.60;99.90;;;;;;5058638;28;21768;-73
2024/01/11 11:45:53;;;;;;;9.52;5.47;;;3.60;99.90;;;;;;5069648;28;20039;-73
2024/01/11 11:48:31;;;;;;;14.85;6.72;;;3.70;99.90;;;;;;5054877;28;20107;-73
2024/01/11 11:51:05;;;;;;;11.85;7.95;;;4.10;99.90;;;;;;5062472;28;20202;-73
2024/01/11 11:53:34;;;;;;;;;;;4.00;99.90;;;;;;5058313;28;20064;-73
2024/01/11 11:56:01;;;;;;;14.25;8.30;;;4.10;99.90;;;;;;5059802;28;20415;-73
2024/01/11 11:58:28;;;;;;;12.80;7.68;;;4.30;99.90;;;;;;5059241;28;20394;-73
2024/01/11 12:00:57;;;;;;;13.18;8.85;;;4.60;99.90;;;;;;5059518;28;20115;-74
2024/01/11 12:03:37;;;;;;;29.13;15.95;;;4.70;99.90;;;;;;5056809;28;20028;-73
2024/01/11 12:06:04;;;;;;;19.88;9.80;;;4.80;99.90;;;;;;5053805;28;20024;-73
2024/01/11 12:08:31;;;;;;;18.23;10.48;;;4.70;99.90;;;;;;5058184;28;20513;-73
2024/01/11 12:10:57;;;;;;;37.22;23.02;;;4.60;99.90;;;;;;5059656;28;20052;-73
2024/01/11 12:13:23;;;;;;;30.27;16.55;;;4.60;99.90;;;;;;5055216;28;20044;-73
2024/01/11 12:15:49;;;;;;;18.98;8.88;;;4.80;99.90;;;;;;5061170;28;20135;-73
2024/01/11 12:18:14;;;;;;;10.10;5.53;;;4.90;99.90;;;;;;5056448;28;20035;-73
2024/01/11 12:20:40;;;;;;;10.50;5.82;;;4.90;99.90;;;;;;5053026;28;20039;-73
2024/01/11 12:23:06;;;;;;;19.83;14.60;;;4.80;99.90;;;;;;5059512;28;20032;-73
2024/01/11 12:25:32;;;;;;;19.00;11.80;;;5.00;99.90;;;;;;5052308;28;20087;-73
2024/01/11 12:27:58;;;;;;;16.17;9.82;;;5.10;99.90;;;;;;5067132;28;21391;-73
2024/01/11 12:30:26;;;;;;;12.23;7.88;;;5.10;99.80;;;;;;5064140;28;20650;-73
2024/01/11 12:32:54;;;;;;;13.80;8.30;;;5.00;99.70;;;;;;5059109;28;20033;-73
2024/01/11 12:35:20;;;;;;;24.40;16.10;;;5.10;99.70;;;;;;5056403;28;20028;-73
2024/01/11 12:37:58;;;;;;;12.75;7.72;;;5.30;99.40;;;;;;5059395;28;20115;-73
2024/01/11 12:40:24;;;;;;;14.82;7.53;;;5.30;99.90;;;;;;5053330;28;20464;-73
2024/01/11 12:42:50;;;;;;;10.20;5.38;;;5.20;99.90;;;;;;5053550;28;20063;-73